PWSweather.com
Personal Weather Stations
Station Observations
KMIEASTT1
Tawas Bay, East Tawas, MI 48730

Tawas BayEast Tawas, MI 48730

Lat: 44.28, Lon: -83.48

Elevation: 600

Station Type: Davis VantagePro

http://www.tawasbayweather.com

High Low Average
Temperature 21.2°F-6.0°C 12.1°F-11.1°C 17.9°F-7.8°C
Dew Point 15.5°F-9.2°C 8.6°F-13.0°C 12.7°F-10.7°C
Winds 15.0 mph 24.1 kmh Calm Calm 5.0 mph W8.0 kmh W
Wind Gusts 18.0 mph29.0 kmh -- 8.0 mph12.9 kmh
Humidity 87% 74% 80%
Pressure 30.27 in1025.1 mb 30.00 in1015.9 mb -
Precipitation 0.00 in0.0 mm - -
Hour Temp Dew Point Humidity Winds Wind Gusts Pressure Precip Precip Rate Daily Precip Total
12:01 AM 18.5°F-7.5°C 15.0°F-9.4°C 86% 3.0 mph WNW4.8 kmh WNW 7.0 mph11.3 kmh 29.96 in1014.6 mb 0.00 in0.0 mm 0.00 in/hr0.0 mm/hr 0.00 in0.0 mm
12:15 AM 18.6°F-7.4°C 15.1°F-9.4°C 86% 3.0 mph NW4.8 kmh NW 8.0 mph12.9 kmh 29.97 in1014.9 mb 0.00 in0.0 mm 0.00 in/hr0.0 mm/hr 0.00 in0.0 mm
12:30 AM 18.8°F-7.3°C 15.3°F-9.3°C 86% 4.0 mph W6.4 kmh W 7.0 mph11.3 kmh 29.98 in1015.2 mb 0.00 in0.0 mm 0.00 in/hr0.0 mm/hr 0.00 in0.0 mm
12:45 AM 19.1°F-7.2°C 15.1°F-9.4°C 84% 6.0 mph NW9.7 kmh NW 11.0 mph17.7 kmh 29.99 in1015.6 mb 0.00 in0.0 mm 0.00 in/hr0.0 mm/hr 0.00 in0.0 mm
01:00 AM 19.4°F-7.0°C 14.8°F-9.6°C 82% 4.0 mph NW6.4 kmh NW 10.0 mph16.1 kmh 30.00 in1015.9 mb 0.00 in0.0 mm 0.00 in/hr0.0 mm/hr 0.00 in0.0 mm
01:15 AM 19.4°F-7.0°C 14.8°F-9.6°C 82% 2.0 mph NW3.2 kmh NW 8.0 mph12.9 kmh 30.01 in1016.3 mb 0.00 in0.0 mm 0.00 in/hr0.0 mm/hr 0.00 in0.0 mm
01:30 AM 19.3°F-7.1°C 14.7°F-9.6°C 82% 3.0 mph NW4.8 kmh NW 8.0 mph12.9 kmh 30.02 in1016.6 mb 0.00 in0.0 mm 0.00 in/hr0.0 mm/hr 0.00 in0.0 mm
01:45 AM 19.3°F-7.1°C 15.3°F-9.3°C 84% 3.0 mph NW4.8 kmh NW 5.0 mph8.0 kmh 30.04 in1017.3 mb 0.00 in0.0 mm 0.00 in/hr0.0 mm/hr 0.00 in0.0 mm
02:01 AM 19.2°F-7.1°C 15.2°F-9.3°C 84% 3.0 mph NNW4.8 kmh NNW 7.0 mph11.3 kmh 30.04 in1017.3 mb 0.00 in0.0 mm 0.00 in/hr0.0 mm/hr 0.00 in0.0 mm
02:15 AM 19.0°F-7.2°C 15.5°F-9.2°C 86% 3.0 mph NW4.8 kmh NW 5.0 mph8.0 kmh 30.05 in1017.6 mb 0.00 in0.0 mm 0.00 in/hr0.0 mm/hr 0.00 in0.0 mm
02:30 AM 18.9°F-7.3°C 15.2°F-9.3°C 85% 4.0 mph NW6.4 kmh NW 9.0 mph14.5 kmh 30.06 in1017.9 mb 0.00 in0.0 mm 0.00 in/hr0.0 mm/hr 0.00 in0.0 mm
02:45 AM 18.8°F-7.3°C 14.8°F-9.6°C 84% 7.0 mph NW11.3 kmh NW 9.0 mph14.5 kmh 30.07 in1018.3 mb 0.00 in0.0 mm 0.00 in/hr0.0 mm/hr 0.00 in0.0 mm
03:00 AM 18.6°F-7.4°C 13.8°F-10.1°C 81% 5.0 mph NNW8.0 kmh NNW 8.0 mph12.9 kmh 30.08 in1018.6 mb 0.00 in0.0 mm 0.00 in/hr0.0 mm/hr 0.00 in0.0 mm
03:15 AM 18.5°F-7.5°C 13.7°F-10.2°C 81% 4.0 mph NW6.4 kmh NW 6.0 mph9.7 kmh 30.09 in1019.0 mb 0.00 in0.0 mm 0.00 in/hr0.0 mm/hr 0.00 in0.0 mm
03:30 AM 18.4°F-7.6°C 13.6°F-10.2°C 81% 4.0 mph NW6.4 kmh NW 6.0 mph9.7 kmh 30.10 in1019.3 mb 0.00 in0.0 mm 0.00 in/hr0.0 mm/hr 0.00 in0.0 mm
03:45 AM 18.2°F-7.7°C 12.8°F-10.7°C 79% 5.0 mph NW8.0 kmh NW 11.0 mph17.7 kmh 30.11 in1019.6 mb 0.00 in0.0 mm 0.00 in/hr0.0 mm/hr 0.00 in0.0 mm
04:00 AM 18.1°F-7.7°C 12.7°F-10.7°C 79% 3.0 mph NW4.8 kmh NW 9.0 mph14.5 kmh 30.12 in1020.0 mb 0.00 in0.0 mm 0.00 in/hr0.0 mm/hr 0.00 in0.0 mm
04:15 AM 17.9°F-7.8°C 12.8°F-10.7°C 80% 2.0 mph NW3.2 kmh NW 7.0 mph11.3 kmh 30.12 in1020.0 mb 0.00 in0.0 mm 0.00 in/hr0.0 mm/hr 0.00 in0.0 mm
04:30 AM 17.6°F-8.0°C 12.8°F-10.7°C 81% 2.0 mph WNW3.2 kmh WNW 6.0 mph9.7 kmh 30.14 in1020.7 mb 0.00 in0.0 mm 0.00 in/hr0.0 mm/hr 0.00 in0.0 mm
04:45 AM 17.5°F-8.1°C 13.0°F-10.6°C 82% 2.0 mph NW3.2 kmh NW 5.0 mph8.0 kmh 30.14 in1020.7 mb 0.00 in0.0 mm 0.00 in/hr0.0 mm/hr 0.00 in0.0 mm
05:01 AM 17.3°F-8.2°C 13.3°F-10.4°C 84% 4.0 mph NNW6.4 kmh NNW 6.0 mph9.7 kmh 30.15 in1021.0 mb 0.00 in0.0 mm 0.00 in/hr0.0 mm/hr 0.00 in0.0 mm
05:15 AM 17.1°F-8.3°C 13.1°F-10.5°C 84% 4.0 mph N6.4 kmh N 5.0 mph8.0 kmh 30.16 in1021.3 mb 0.00 in0.0 mm 0.00 in/hr0.0 mm/hr 0.00 in0.0 mm
05:30 AM 16.7°F-8.5°C 12.2°F-11.0°C 82% 4.0 mph NW6.4 kmh NW 7.0 mph11.3 kmh 30.16 in1021.3 mb 0.00 in0.0 mm 0.00 in/hr0.0 mm/hr 0.00 in0.0 mm
05:45 AM 16.4°F-8.7°C 11.9°F-11.2°C 82% 3.0 mph NW4.8 kmh NW 6.0 mph9.7 kmh 30.17 in1021.7 mb 0.00 in0.0 mm 0.00 in/hr0.0 mm/hr 0.00 in0.0 mm
06:01 AM 16.3°F-8.7°C 12.1°F-11.1°C 83% 2.0 mph NW3.2 kmh NW 5.0 mph8.0 kmh 30.19 in1022.4 mb 0.00 in0.0 mm 0.00 in/hr0.0 mm/hr 0.00 in0.0 mm
06:15 AM 16.2°F-8.8°C 12.0°F-11.1°C 83% 2.0 mph NW3.2 kmh NW 4.0 mph6.4 kmh 30.19 in1022.4 mb 0.00 in0.0 mm 0.00 in/hr0.0 mm/hr 0.00 in0.0 mm
06:30 AM 15.8°F-9.0°C 11.6°F-11.3°C 83% 2.0 mph NW3.2 kmh NW 3.0 mph4.8 kmh 30.20 in1022.7 mb 0.00 in0.0 mm 0.00 in/hr0.0 mm/hr 0.00 in0.0 mm
06:45 AM 15.2°F-9.3°C 10.7°F-11.8°C 82% 3.0 mph NW4.8 kmh NW 3.0 mph4.8 kmh 30.21 in1023.0 mb 0.00 in0.0 mm 0.00 in/hr0.0 mm/hr 0.00 in0.0 mm
07:01 AM 15.0°F-9.4°C 10.2°F-12.1°C 81% 3.0 mph NW4.8 kmh NW 7.0 mph11.3 kmh 30.22 in1023.4 mb 0.00 in0.0 mm 0.00 in/hr0.0 mm/hr 0.00 in0.0 mm
07:15 AM 14.5°F-9.7°C 10.0°F-12.2°C 82% 2.0 mph NW3.2 kmh NW 4.0 mph6.4 kmh 30.22 in1023.4 mb 0.00 in0.0 mm 0.00 in/hr0.0 mm/hr 0.00 in0.0 mm
07:30 AM 14.0°F-10.0°C 9.5°F-12.5°C 82% Calm Calm 3.0 mph4.8 kmh 30.22 in1023.4 mb 0.00 in0.0 mm 0.00 in/hr0.0 mm/hr 0.00 in0.0 mm
07:45 AM 13.6°F-10.2°C 9.4°F-12.6°C 83% Calm Calm 1.0 mph1.6 kmh 30.20 in1022.7 mb 0.00 in0.0 mm 0.00 in/hr0.0 mm/hr 0.00 in0.0 mm
08:01 AM 13.6°F-10.2°C 9.4°F-12.6°C 83% Calm Calm -- 30.20 in1022.7 mb 0.00 in0.0 mm 0.00 in/hr0.0 mm/hr 0.00 in0.0 mm
08:15 AM 13.2°F-10.4°C 9.0°F-12.8°C 83% Calm Calm 1.0 mph1.6 kmh 30.20 in1022.7 mb 0.00 in0.0 mm 0.00 in/hr0.0 mm/hr 0.00 in0.0 mm
08:30 AM 12.2°F-11.0°C 8.6°F-13.0°C 85% Calm Calm 1.0 mph1.6 kmh 30.21 in1023.0 mb 0.00 in0.0 mm 0.00 in/hr0.0 mm/hr 0.00 in0.0 mm
08:45 AM 12.1°F-11.1°C 8.7°F-12.9°C 86% 1.0 mph WNW1.6 kmh WNW 3.0 mph4.8 kmh 30.22 in1023.4 mb 0.00 in0.0 mm 0.00 in/hr0.0 mm/hr 0.00 in0.0 mm
09:01 AM 12.1°F-11.1°C 9.0°F-12.8°C 87% 1.0 mph WNW1.6 kmh WNW 2.0 mph3.2 kmh 30.22 in1023.4 mb 0.00 in0.0 mm 0.00 in/hr0.0 mm/hr 0.00 in0.0 mm
09:15 AM 12.9°F-10.6°C 9.5°F-12.5°C 86% 3.0 mph WSW4.8 kmh WSW 3.0 mph4.8 kmh 30.23 in1023.7 mb 0.00 in0.0 mm 0.00 in/hr0.0 mm/hr 0.00 in0.0 mm
09:30 AM 13.2°F-10.4°C 9.6°F-12.4°C 85% 1.0 mph W1.6 kmh W 2.0 mph3.2 kmh 30.24 in1024.0 mb 0.00 in0.0 mm 0.00 in/hr0.0 mm/hr 0.00 in0.0 mm
10:01 AM 14.9°F-9.5°C 10.7°F-11.8°C 83% 1.0 mph W1.6 kmh W 3.0 mph4.8 kmh 30.25 in1024.4 mb 0.00 in0.0 mm 0.00 in/hr0.0 mm/hr 0.00 in0.0 mm
10:15 AM 15.6°F-9.1°C 10.5°F-11.9°C 80% 2.0 mph WSW3.2 kmh WSW 3.0 mph4.8 kmh 30.25 in1024.4 mb 0.00 in0.0 mm 0.00 in/hr0.0 mm/hr 0.00 in0.0 mm
10:30 AM 16.3°F-8.7°C 10.9°F-11.7°C 79% 1.0 mph W1.6 kmh W 4.0 mph6.4 kmh 30.26 in1024.7 mb 0.00 in0.0 mm 0.00 in/hr0.0 mm/hr 0.00 in0.0 mm
10:45 AM 16.5°F-8.6°C 10.9°F-11.7°C 78% 4.0 mph WSW6.4 kmh WSW 4.0 mph6.4 kmh 30.26 in1024.7 mb 0.00 in0.0 mm 0.00 in/hr0.0 mm/hr 0.00 in0.0 mm
11:01 AM 17.0°F-8.3°C 10.5°F-11.9°C 75% 4.0 mph SW6.4 kmh SW 5.0 mph8.0 kmh 30.27 in1025.1 mb 0.00 in0.0 mm 0.00 in/hr0.0 mm/hr 0.00 in0.0 mm
11:15 AM 17.2°F-8.2°C 11.0°F-11.7°C 76% 5.0 mph WSW8.0 kmh WSW 5.0 mph8.0 kmh 30.27 in1025.1 mb 0.00 in0.0 mm 0.00 in/hr0.0 mm/hr 0.00 in0.0 mm
11:30 AM 17.4°F-8.1°C 11.1°F-11.6°C 76% 2.0 mph WSW3.2 kmh WSW 4.0 mph6.4 kmh 30.27 in1025.1 mb 0.00 in0.0 mm 0.00 in/hr0.0 mm/hr 0.00 in0.0 mm
11:45 AM 17.8°F-7.9°C 10.9°F-11.7°C 74% 2.0 mph W3.2 kmh W 4.0 mph6.4 kmh 30.27 in1025.1 mb 0.00 in0.0 mm 0.00 in/hr0.0 mm/hr 0.00 in0.0 mm
12:01 PM 18.0°F-7.8°C 11.7°F-11.3°C 76% 2.0 mph SW3.2 kmh SW 4.0 mph6.4 kmh 30.27 in1025.1 mb 0.00 in0.0 mm 0.00 in/hr0.0 mm/hr 0.00 in0.0 mm
12:15 PM 18.3°F-7.6°C 11.4°F-11.4°C 74% 2.0 mph SW3.2 kmh SW 4.0 mph6.4 kmh 30.27 in1025.1 mb 0.00 in0.0 mm 0.00 in/hr0.0 mm/hr 0.00 in0.0 mm
12:31 PM 18.7°F-7.4°C 12.4°F-10.9°C 76% 3.0 mph SW4.8 kmh SW 5.0 mph8.0 kmh 30.26 in1024.7 mb 0.00 in0.0 mm 0.00 in/hr0.0 mm/hr 0.00 in0.0 mm
01:01 PM 19.5°F-6.9°C 13.8°F-10.1°C 78% 5.0 mph WSW8.0 kmh WSW 6.0 mph9.7 kmh 30.24 in1024.0 mb 0.00 in0.0 mm 0.00 in/hr0.0 mm/hr 0.00 in0.0 mm
01:15 PM 20.0°F-6.7°C 14.0°F-10.0°C 77% 5.0 mph SSW8.0 kmh SSW 8.0 mph12.9 kmh 30.24 in1024.0 mb 0.00 in0.0 mm 0.00 in/hr0.0 mm/hr 0.00 in0.0 mm
01:31 PM 19.8°F-6.8°C 14.4°F-9.8°C 79% 5.0 mph SW8.0 kmh SW 9.0 mph14.5 kmh 30.23 in1023.7 mb 0.00 in0.0 mm 0.00 in/hr0.0 mm/hr 0.00 in0.0 mm
01:45 PM 20.0°F-6.7°C 14.8°F-9.6°C 80% 6.0 mph SW9.7 kmh SW 9.0 mph14.5 kmh 30.23 in1023.7 mb 0.00 in0.0 mm 0.00 in/hr0.0 mm/hr 0.00 in0.0 mm
02:01 PM 19.9°F-6.7°C 13.3°F-10.4°C 75% 5.0 mph SW8.0 kmh SW 10.0 mph16.1 kmh 30.22 in1023.4 mb 0.00 in0.0 mm 0.00 in/hr0.0 mm/hr 0.00 in0.0 mm
02:15 PM 20.0°F-6.7°C 13.4°F-10.3°C 75% 4.0 mph WSW6.4 kmh WSW 5.0 mph8.0 kmh 30.21 in1023.0 mb 0.00 in0.0 mm 0.00 in/hr0.0 mm/hr 0.00 in0.0 mm
02:31 PM 20.3°F-6.5°C 14.3°F-9.8°C 77% 8.0 mph SW12.9 kmh SW 10.0 mph16.1 kmh 30.21 in1023.0 mb 0.00 in0.0 mm 0.00 in/hr0.0 mm/hr 0.00 in0.0 mm
02:45 PM 20.2°F-6.6°C 14.5°F-9.7°C 78% 7.0 mph WSW11.3 kmh WSW 13.0 mph20.9 kmh 30.20 in1022.7 mb 0.00 in0.0 mm 0.00 in/hr0.0 mm/hr 0.00 in0.0 mm
03:01 PM 20.3°F-6.5°C 14.0°F-10.0°C 76% 8.0 mph SW12.9 kmh SW 11.0 mph17.7 kmh 30.20 in1022.7 mb 0.00 in0.0 mm 0.00 in/hr0.0 mm/hr 0.00 in0.0 mm
03:15 PM 20.4°F-6.4°C 14.1°F-9.9°C 76% 12.0 mph WSW19.3 kmh WSW 13.0 mph20.9 kmh 30.19 in1022.4 mb 0.00 in0.0 mm 0.00 in/hr0.0 mm/hr 0.00 in0.0 mm
03:31 PM 20.0°F-6.7°C 13.7°F-10.2°C 76% 12.0 mph WSW19.3 kmh WSW 14.0 mph22.5 kmh 30.19 in1022.4 mb 0.00 in0.0 mm 0.00 in/hr0.0 mm/hr 0.00 in0.0 mm
03:45 PM 19.9°F-6.7°C 13.6°F-10.2°C 76% 13.0 mph WSW20.9 kmh WSW 14.0 mph22.5 kmh 30.19 in1022.4 mb 0.00 in0.0 mm 0.00 in/hr0.0 mm/hr 0.00 in0.0 mm
04:01 PM 19.8°F-6.8°C 14.1°F-9.9°C 78% 9.0 mph WSW14.5 kmh WSW 13.0 mph20.9 kmh 30.18 in1022.0 mb 0.00 in0.0 mm 0.00 in/hr0.0 mm/hr 0.00 in0.0 mm
04:15 PM 20.0°F-6.7°C 14.0°F-10.0°C 77% 12.0 mph SW19.3 kmh SW 16.0 mph25.7 kmh 30.18 in1022.0 mb 0.00 in0.0 mm 0.00 in/hr0.0 mm/hr 0.00 in0.0 mm
04:30 PM 20.1°F-6.6°C 13.5°F-10.3°C 75% 9.0 mph SSW14.5 kmh SSW 15.0 mph24.1 kmh 30.17 in1021.7 mb 0.00 in0.0 mm 0.00 in/hr0.0 mm/hr 0.00 in0.0 mm
04:45 PM 20.0°F-6.7°C 13.4°F-10.3°C 75% 11.0 mph WSW17.7 kmh WSW 14.0 mph22.5 kmh 30.16 in1021.3 mb 0.00 in0.0 mm 0.00 in/hr0.0 mm/hr 0.00 in0.0 mm
05:01 PM 20.0°F-6.7°C 14.0°F-10.0°C 77% 10.0 mph SW16.1 kmh SW 14.0 mph22.5 kmh 30.16 in1021.3 mb 0.00 in0.0 mm 0.00 in/hr0.0 mm/hr 0.00 in0.0 mm
05:15 PM 20.0°F-6.7°C 14.3°F-9.8°C 78% 12.0 mph WSW19.3 kmh WSW 16.0 mph25.7 kmh 30.17 in1021.7 mb 0.00 in0.0 mm 0.00 in/hr0.0 mm/hr 0.00 in0.0 mm
05:30 PM 20.0°F-6.7°C 14.0°F-10.0°C 77% 11.0 mph SW17.7 kmh SW 15.0 mph24.1 kmh 30.16 in1021.3 mb 0.00 in0.0 mm 0.00 in/hr0.0 mm/hr 0.00 in0.0 mm
05:45 PM 19.8°F-6.8°C 13.5°F-10.3°C 76% 15.0 mph WSW24.1 kmh WSW 18.0 mph29.0 kmh 30.16 in1021.3 mb 0.00 in0.0 mm 0.00 in/hr0.0 mm/hr 0.00 in0.0 mm
06:01 PM 19.8°F-6.8°C 13.5°F-10.3°C 76% 13.0 mph SW20.9 kmh SW 18.0 mph29.0 kmh 30.16 in1021.3 mb 0.00 in0.0 mm 0.00 in/hr0.0 mm/hr 0.00 in0.0 mm
06:15 PM 19.9°F-6.7°C 13.6°F-10.2°C 76% 12.0 mph SW19.3 kmh SW 14.0 mph22.5 kmh 30.15 in1021.0 mb 0.00 in0.0 mm 0.00 in/hr0.0 mm/hr 0.00 in0.0 mm
06:31 PM 20.4°F-6.4°C 14.1°F-9.9°C 76% 10.0 mph SSW16.1 kmh SSW 15.0 mph24.1 kmh 30.15 in1021.0 mb 0.00 in0.0 mm 0.00 in/hr0.0 mm/hr 0.00 in0.0 mm
06:45 PM 20.6°F-6.3°C 14.3°F-9.8°C 76% 15.0 mph SW24.1 kmh SW 16.0 mph25.7 kmh 30.15 in1021.0 mb 0.00 in0.0 mm 0.00 in/hr0.0 mm/hr 0.00 in0.0 mm
07:01 PM 20.6°F-6.3°C 14.6°F-9.7°C 77% 10.0 mph SW16.1 kmh SW 16.0 mph25.7 kmh 30.15 in1021.0 mb 0.00 in0.0 mm 0.00 in/hr0.0 mm/hr 0.00 in0.0 mm
07:15 PM 21.0°F-6.1°C 14.9°F-9.5°C 77% 10.0 mph SSW16.1 kmh SSW 16.0 mph25.7 kmh 30.14 in1020.7 mb 0.00 in0.0 mm 0.00 in/hr0.0 mm/hr 0.00 in0.0 mm
07:30 PM 21.2°F-6.0°C 15.1°F-9.4°C 77% 13.0 mph SSW20.9 kmh SSW 15.0 mph24.1 kmh 30.13 in1020.3 mb 0.00 in0.0 mm 0.00 in/hr0.0 mm/hr 0.00 in0.0 mm
07:45 PM 21.8°F-5.7°C 16.0°F-8.9°C 78% 13.0 mph SW20.9 kmh SW 17.0 mph27.4 kmh 30.13 in1020.3 mb 0.00 in0.0 mm 0.00 in/hr0.0 mm/hr 0.00 in0.0 mm
08:01 PM 22.2°F-5.4°C 16.4°F-8.7°C 78% 13.0 mph SW20.9 kmh SW 18.0 mph29.0 kmh 30.13 in1020.3 mb 0.00 in0.0 mm 0.00 in/hr0.0 mm/hr 0.00 in0.0 mm
08:15 PM 22.4°F-5.3°C 16.6°F-8.6°C 78% 16.0 mph S25.7 kmh S 18.0 mph29.0 kmh 30.12 in1020.0 mb 0.00 in0.0 mm 0.00 in/hr0.0 mm/hr 0.00 in0.0 mm
08:30 PM 22.7°F-5.2°C 16.9°F-8.4°C 78% 11.0 mph SSW17.7 kmh SSW 19.0 mph30.6 kmh 30.11 in1019.6 mb 0.00 in0.0 mm 0.00 in/hr0.0 mm/hr 0.00 in0.0 mm
08:45 PM 22.9°F-5.1°C 17.1°F-8.3°C 78% 14.0 mph S22.5 kmh S 19.0 mph30.6 kmh 30.11 in1019.6 mb 0.00 in0.0 mm 0.00 in/hr0.0 mm/hr 0.00 in0.0 mm
09:01 PM 23.3°F-4.8°C 18.1°F-7.7°C 80% 13.0 mph SSW20.9 kmh SSW 20.0 mph32.2 kmh 30.09 in1019.0 mb 0.00 in0.0 mm 0.00 in/hr0.0 mm/hr 0.00 in0.0 mm
09:15 PM 23.1°F-4.9°C 17.3°F-8.2°C 78% 15.0 mph S24.1 kmh S 20.0 mph32.2 kmh 30.09 in1019.0 mb 0.00 in0.0 mm 0.00 in/hr0.0 mm/hr 0.00 in0.0 mm
09:31 PM 23.3°F-4.8°C 17.2°F-8.2°C 77% 18.0 mph SW29.0 kmh SW 20.0 mph32.2 kmh 30.08 in1018.6 mb 0.00 in0.0 mm 0.00 in/hr0.0 mm/hr 0.00 in0.0 mm
09:45 PM 23.5°F-4.7°C 17.7°F-7.9°C 78% 15.0 mph S24.1 kmh S 25.0 mph40.2 kmh 30.07 in1018.3 mb 0.00 in0.0 mm 0.00 in/hr0.0 mm/hr 0.00 in0.0 mm
10:01 PM 23.5°F-4.7°C 17.7°F-7.9°C 78% 17.0 mph S27.4 kmh S 22.0 mph35.4 kmh 30.06 in1017.9 mb 0.00 in0.0 mm 0.00 in/hr0.0 mm/hr 0.00 in0.0 mm
10:15 PM 23.7°F-4.6°C 17.9°F-7.8°C 78% 21.0 mph SSW33.8 kmh SSW 24.0 mph38.6 kmh 30.05 in1017.6 mb 0.00 in0.0 mm 0.00 in/hr0.0 mm/hr 0.00 in0.0 mm
10:30 PM 24.0°F-4.4°C 18.7°F-7.4°C 80% 19.0 mph S30.6 kmh S 22.0 mph35.4 kmh 30.04 in1017.3 mb 0.00 in0.0 mm 0.00 in/hr0.0 mm/hr 0.00 in0.0 mm
10:45 PM 24.2°F-4.3°C 19.2°F-7.1°C 81% 16.0 mph SSW25.7 kmh SSW 23.0 mph37.0 kmh 30.04 in1017.3 mb 0.00 in0.0 mm 0.00 in/hr0.0 mm/hr 0.00 in0.0 mm
11:01 PM 24.2°F-4.3°C 18.9°F-7.3°C 80% 18.0 mph S29.0 kmh S 23.0 mph37.0 kmh 30.03 in1016.9 mb 0.00 in0.0 mm 0.00 in/hr0.0 mm/hr 0.00 in0.0 mm
11:15 PM 24.1°F-4.4°C 18.8°F-7.3°C 80% 18.0 mph S29.0 kmh S 23.0 mph37.0 kmh 30.02 in1016.6 mb 0.00 in0.0 mm 0.00 in/hr0.0 mm/hr 0.00 in0.0 mm
11:30 PM 23.8°F-4.6°C 18.8°F-7.3°C 81% 19.0 mph S30.6 kmh S 24.0 mph38.6 kmh 30.01 in1016.3 mb 0.00 in0.0 mm 0.00 in/hr0.0 mm/hr 0.00 in0.0 mm
11:45 PM 23.8°F-4.6°C 19.4°F-7.0°C 83% 16.0 mph S25.7 kmh S 24.0 mph38.6 kmh 30.00 in1015.9 mb 0.00 in0.0 mm 0.00 in/hr0.0 mm/hr 0.00 in0.0 mm